Englewood, Colorado
Current Conditions -  °F | °C
As of 6:53 AM on Monday 26 Jan 2015 (Local Time) from KAPA Reporting Station
Few Clouds Few Clouds  
Wind Chill: -1°   Ceiling: Unl
Heat Index:   Visibility: 10mi
Dew Point: -5°   Wind: 9mph
Humidity: 57%   Direction: 180°S
Pressure: 30.26"   Gusts: NA
Location:  39.65°N, 104.99°W
Report Text: KAPA 261353Z 18008KT 10SM FEW150 03/M05 A3026 RMK AO2 SLP246 T00281050
Loading
Personal Weather Stations






























Interactive Weather Map New forecast layout! Learn more

10-Day Weather Forecast

Advertisements
Track Severe Weather on mobile